createdAt,value
2023-03-18T00:02:45.244Z,1.32
2023-03-18T00:21:47.675Z,1.00
2023-03-18T00:24:38.869Z,1.17
2023-03-18T00:27:30.512Z,1.37
2023-03-18T00:30:22.486Z,1.25
2023-03-18T00:33:14.194Z,1.17
2023-03-18T00:36:06.978Z,1.00
2023-03-18T00:42:12.498Z,1.10
2023-03-18T00:45:04.263Z,1.12
2023-03-18T00:47:56.890Z,1.27
2023-03-18T00:50:47.976Z,1.17
2023-03-18T00:56:33.225Z,1.00
2023-03-18T00:59:26.188Z,1.10
2023-03-18T01:02:17.538Z,1.20
2023-03-18T01:05:09.360Z,1.22
2023-03-18T01:08:00.960Z,1.10
2023-03-18T01:10:52.215Z,1.37
2023-03-18T01:13:45.936Z,1.37
2023-03-18T01:21:07.185Z,1.17
2023-03-18T01:40:54.831Z,1.20
2023-03-18T01:43:46.448Z,1.20
2023-03-18T01:46:40.136Z,1.20
2023-03-18T01:49:35.438Z,1.22
2023-03-18T01:56:02.853Z,1.10
2023-03-18T02:01:48.179Z,1.15
2023-03-18T02:07:22.967Z,1.37
2023-03-18T02:10:18.531Z,1.05
2023-03-18T02:13:12.653Z,1.10
2023-03-18T02:16:07.049Z,1.07
2023-03-18T02:21:47.752Z,1.25
2023-03-18T02:24:42.849Z,1.30
2023-03-18T02:27:38.777Z,1.27
2023-03-18T02:30:33.943Z,1.37
2023-03-18T02:36:41.606Z,1.30
2023-03-18T02:39:34.169Z,1.55
2023-03-18T02:42:33.366Z,0.93
2023-03-18T02:45:35.171Z,1.52
2023-03-18T02:48:37.219Z,1.20
2023-03-18T02:51:30.196Z,1.02
2023-03-18T02:57:02.868Z,1.20
2023-03-18T03:16:09.586Z,1.07
2023-03-18T03:21:46.069Z,1.65
2023-03-18T03:24:37.824Z,1.42
2023-03-18T03:27:30.101Z,1.37
2023-03-18T03:33:08.572Z,1.22
2023-03-18T03:36:00.002Z,1.40
2023-03-18T03:38:51.735Z,1.30
2023-03-18T03:41:42.807Z,1.50
2023-03-18T03:44:34.323Z,1.82
2023-03-18T03:47:26.092Z,1.22
2023-03-18T03:50:19.754Z,1.00
2023-03-18T03:53:11.651Z,1.10
2023-03-18T03:56:03.119Z,1.40
2023-03-18T03:58:54.471Z,1.00
2023-03-18T04:01:47.109Z,1.22
2023-03-18T04:04:39.071Z,1.35
2023-03-18T04:07:31.114Z,1.47
2023-03-18T04:10:23.529Z,1.50
2023-03-18T04:16:06.459Z,1.30
2023-03-18T04:18:57.928Z,1.50
2023-03-18T04:24:29.203Z,1.12
2023-03-18T04:27:20.718Z,1.40
2023-03-18T04:30:15.018Z,1.20
2023-03-18T04:36:01.243Z,1.50
2023-03-18T04:38:52.974Z,1.35
2023-03-18T04:41:44.684Z,1.32
2023-03-18T05:14:38.519Z,1.10
2023-03-18T05:17:30.303Z,1.15
2023-03-18T05:20:23.692Z,1.57
2023-03-18T05:23:15.902Z,0.93
2023-03-18T05:26:10.072Z,1.85
2023-03-18T05:32:23.356Z,1.42
2023-03-18T05:35:16.483Z,1.10
2023-03-18T05:38:10.348Z,1.05
2023-03-18T05:43:42.810Z,1.30
2023-03-18T05:46:37.547Z,1.32
2023-03-18T05:52:13.487Z,1.60
2023-03-18T05:55:07.076Z,1.45
2023-03-18T05:58:03.534Z,1.67
2023-03-18T06:03:41.192Z,1.75
2023-03-18T06:09:26.229Z,1.42
2023-03-18T06:12:19.805Z,1.57
2023-03-18T06:18:28.175Z,1.55
2023-03-18T06:21:19.336Z,1.80
2023-03-18T06:24:13.930Z,1.50
2023-03-18T06:27:05.814Z,1.30
2023-03-18T06:29:58.235Z,1.40
2023-03-18T06:32:49.694Z,1.52
2023-03-18T06:39:34.901Z,1.50
2023-03-18T06:42:29.362Z,1.27
2023-03-18T06:45:22.627Z,1.65
2023-03-18T06:48:25.370Z,1.72
2023-03-18T06:55:04.064Z,1.62
2023-03-18T06:57:56.744Z,1.20
2023-03-18T07:00:49.670Z,1.80
2023-03-18T07:06:27.582Z,2.17
2023-03-18T07:09:19.331Z,1.45
2023-03-18T07:16:01.188Z,1.67
2023-03-18T07:18:53.768Z,1.57
2023-03-18T07:24:36.232Z,1.70
2023-03-18T07:31:17.845Z,1.90
2023-03-18T07:34:09.618Z,1.60
2023-03-18T07:37:00.806Z,1.42
2023-03-18T07:39:53.157Z,1.52
2023-03-18T07:46:05.963Z,1.62
2023-03-18T07:51:46.501Z,1.52
2023-03-18T07:54:38.756Z,1.67
2023-03-18T07:57:30.270Z,1.50
2023-03-18T08:00:23.322Z,1.80
2023-03-18T08:03:15.014Z,1.70
2023-03-18T08:06:07.101Z,1.57
2023-03-18T08:11:39.491Z,1.67
2023-03-18T08:14:30.297Z,1.75
2023-03-18T08:17:21.547Z,1.72
2023-03-18T08:22:52.683Z,2.10
2023-03-18T08:25:44.076Z,2.10
2023-03-18T08:31:14.452Z,2.50
2023-03-18T08:34:05.591Z,2.77
2023-03-18T08:36:56.986Z,3.05
2023-03-18T08:39:48.074Z,2.95
2023-03-18T08:42:39.123Z,2.75
2023-03-18T08:45:30.288Z,2.67
2023-03-18T08:48:21.850Z,3.47
2023-03-18T08:51:13.336Z,3.70
2023-03-18T08:56:42.677Z,3.65
2023-03-18T08:59:33.732Z,4.30
2023-03-18T09:02:24.928Z,4.12
2023-03-18T09:05:16.131Z,4.25
2023-03-18T09:08:07.899Z,5.20
2023-03-18T09:11:00.095Z,5.05
2023-03-18T09:13:52.426Z,5.92
2023-03-18T09:16:43.811Z,5.30
2023-03-18T09:19:35.497Z,5.78
2023-03-18T09:22:27.907Z,5.62
2023-03-18T09:25:19.364Z,5.20
2023-03-18T09:28:10.864Z,4.95
2023-03-18T09:33:50.461Z,6.30
2023-03-18T09:36:43.572Z,6.55
2023-03-18T09:42:22.692Z,6.53
2023-03-18T09:45:19.297Z,5.35
2023-03-18T09:48:28.863Z,6.03
2023-03-18T09:51:28.455Z,5.55
2023-03-18T09:54:22.998Z,6.35
2023-03-18T09:57:18.327Z,6.85
2023-03-18T10:00:15.603Z,7.80
2023-03-18T10:03:10.212Z,7.20
2023-03-18T10:06:06.881Z,7.22
2023-03-18T10:11:42.775Z,7.12
2023-03-18T10:17:20.738Z,7.80
2023-03-18T10:20:18.824Z,7.20
2023-03-18T10:23:15.972Z,6.50
2023-03-18T10:26:11.709Z,6.53
2023-03-18T10:32:02.682Z,7.95
2023-03-18T10:37:52.976Z,7.22
2023-03-18T10:43:26.475Z,6.62
2023-03-18T10:46:19.908Z,6.50
2023-03-18T10:49:15.427Z,7.35
2023-03-18T10:52:10.472Z,7.30
2023-03-18T10:55:01.774Z,6.90
2023-03-18T11:00:42.650Z,6.72
2023-03-18T11:03:36.531Z,6.72
2023-03-18T11:09:24.945Z,8.25
2023-03-18T11:12:19.801Z,6.37
2023-03-18T11:15:14.855Z,8.03
2023-03-18T11:18:14.610Z,6.80
2023-03-18T11:21:10.479Z,8.10
2023-03-18T11:26:52.739Z,7.78
2023-03-18T11:29:47.016Z,6.80
2023-03-18T11:32:38.862Z,6.12
2023-03-18T11:35:39.928Z,5.87
2023-03-18T11:41:21.860Z,6.70
2023-03-18T11:47:03.087Z,8.18
2023-03-18T11:49:54.597Z,6.72
2023-03-18T11:55:34.662Z,6.97
2023-03-18T11:58:59.915Z,6.55
2023-03-18T12:01:57.112Z,6.37
2023-03-18T12:04:56.539Z,6.90
2023-03-18T12:07:55.515Z,6.42
2023-03-18T12:10:49.632Z,7.30
2023-03-18T12:13:50.539Z,7.22
2023-03-18T12:20:06.324Z,7.37
2023-03-18T12:23:06.675Z,5.10
2023-03-18T12:26:28.883Z,7.53
2023-03-18T12:30:00.413Z,7.40
2023-03-18T12:32:58.182Z,6.92
2023-03-18T12:35:56.451Z,6.83
2023-03-18T12:39:12.116Z,5.75
2023-03-18T12:42:14.116Z,6.83
2023-03-18T12:45:20.539Z,6.05
2023-03-18T12:50:53.047Z,6.00
2023-03-18T12:53:47.621Z,6.55
2023-03-18T12:56:43.707Z,6.85
2023-03-18T12:59:41.743Z,6.10
2023-03-18T13:05:31.482Z,6.58
2023-03-18T13:08:32.147Z,7.30
2023-03-18T13:11:33.146Z,7.80
2023-03-18T13:14:28.948Z,6.67
2023-03-18T13:17:24.434Z,6.92
2023-03-18T13:20:19.384Z,6.50
2023-03-18T13:26:05.187Z,5.60
2023-03-18T13:31:45.570Z,6.87
2023-03-18T13:38:14.766Z,6.12
2023-03-18T13:41:36.949Z,6.97
2023-03-18T13:44:31.398Z,5.72
2023-03-18T13:47:24.861Z,5.15
2023-03-18T13:53:35.897Z,6.95
2023-03-18T13:56:32.519Z,5.95
2023-03-18T14:02:45.613Z,6.42
2023-03-18T14:05:41.821Z,5.30
2023-03-18T14:11:51.944Z,6.65
2023-03-18T14:15:12.009Z,5.53
2023-03-18T14:20:55.158Z,6.30
2023-03-18T14:23:47.012Z,6.12
2023-03-18T14:29:27.712Z,6.25
2023-03-18T14:32:40.671Z,6.58
2023-03-18T14:35:34.861Z,6.97
2023-03-18T14:41:20.807Z,5.40
2023-03-18T14:44:20.953Z,6.50
2023-03-18T14:47:31.947Z,6.53
2023-03-18T14:50:37.115Z,6.55
2023-03-18T14:56:21.931Z,6.72
2023-03-18T15:01:54.199Z,6.37
2023-03-18T15:04:53.181Z,6.20
2023-03-18T15:07:45.634Z,5.92
2023-03-18T15:10:38.547Z,6.15
2023-03-18T15:13:29.887Z,5.40
2023-03-18T15:16:23.565Z,5.22
2023-03-18T15:19:17.332Z,5.62
2023-03-18T15:22:10.943Z,5.35
2023-03-18T15:27:43.051Z,5.33
2023-03-18T15:30:35.959Z,4.60
2023-03-18T15:33:30.923Z,4.80
2023-03-18T15:36:22.750Z,5.42
2023-03-18T15:39:26.568Z,5.45
2023-03-18T15:42:20.000Z,5.12
2023-03-18T15:47:57.108Z,6.45
2023-03-18T15:50:55.837Z,5.28
2023-03-18T15:53:48.957Z,5.17
2023-03-18T15:56:43.410Z,5.58
2023-03-18T15:59:35.788Z,4.22
2023-03-18T16:02:27.561Z,4.20
2023-03-18T16:05:22.187Z,4.83
2023-03-18T16:10:56.783Z,5.28
2023-03-18T16:13:47.999Z,5.20
2023-03-18T16:16:39.217Z,4.50
2023-03-18T16:19:31.065Z,4.42
2023-03-18T16:22:22.001Z,4.92
2023-03-18T16:27:54.798Z,4.65
2023-03-18T16:30:46.380Z,4.37
2023-03-18T16:36:23.879Z,3.37
2023-03-18T16:39:19.594Z,2.83
2023-03-18T16:42:12.330Z,3.42
2023-03-18T16:45:05.328Z,4.25
2023-03-18T16:47:59.558Z,3.77
2023-03-18T16:50:52.940Z,4.28
2023-03-18T16:53:44.796Z,4.20
2023-03-18T16:56:36.446Z,4.15
2023-03-18T17:02:12.085Z,4.37
2023-03-18T17:07:46.886Z,3.80
2023-03-18T17:10:38.583Z,3.87
2023-03-18T17:13:31.312Z,3.92
2023-03-18T17:16:22.540Z,3.47
2023-03-18T17:19:15.511Z,3.15
2023-03-18T17:22:15.237Z,3.47
2023-03-18T17:25:07.365Z,3.30
2023-03-18T17:30:39.527Z,3.40
2023-03-18T17:36:10.595Z,3.33
2023-03-18T17:41:41.228Z,3.15
2023-03-18T17:47:11.956Z,3.50
2023-03-18T17:50:04.921Z,3.37
2023-03-18T17:52:55.926Z,3.02
2023-03-18T17:55:46.977Z,3.45
2023-03-18T17:58:38.460Z,2.83
2023-03-18T18:01:30.321Z,3.15
2023-03-18T18:04:23.392Z,3.10
2023-03-18T18:07:19.701Z,3.33
2023-03-18T18:12:50.545Z,2.75
2023-03-18T18:15:43.648Z,3.20
2023-03-18T18:21:16.835Z,3.55
2023-03-18T18:26:45.977Z,3.08
2023-03-18T18:29:37.892Z,3.15
2023-03-18T18:32:29.118Z,3.20
2023-03-18T18:35:22.871Z,2.98
2023-03-18T18:40:53.812Z,2.87
2023-03-18T18:43:44.886Z,2.83
2023-03-18T18:49:22.914Z,2.90
2023-03-18T18:52:14.707Z,3.45
2023-03-18T18:55:07.110Z,3.50
2023-03-18T18:57:58.532Z,3.27
2023-03-18T19:00:51.353Z,3.17
2023-03-18T19:03:42.874Z,3.15
2023-03-18T19:06:34.767Z,2.85
2023-03-18T19:09:27.363Z,3.45
2023-03-18T19:12:36.753Z,3.20
2023-03-18T19:15:28.218Z,3.22
2023-03-18T19:18:21.364Z,3.25
2023-03-18T19:21:12.398Z,3.33
2023-03-18T19:24:03.336Z,3.35
2023-03-18T19:26:54.585Z,3.80
2023-03-18T19:29:47.486Z,3.77
2023-03-18T19:32:38.479Z,3.35
2023-03-18T19:35:30.302Z,3.47
2023-03-18T19:40:59.798Z,3.80
2023-03-18T19:46:38.686Z,4.25
2023-03-18T19:49:32.833Z,4.37
2023-03-18T19:52:25.386Z,4.12
2023-03-18T19:55:18.069Z,3.60
2023-03-18T20:00:47.634Z,3.52
2023-03-18T20:03:38.651Z,3.52
2023-03-18T20:06:29.640Z,4.17
2023-03-18T20:09:21.078Z,3.65
2023-03-18T20:12:21.553Z,3.60
2023-03-18T20:15:17.129Z,3.70
2023-03-18T20:20:50.178Z,3.80
2023-03-18T20:26:19.630Z,3.10
2023-03-18T20:29:19.839Z,3.80
2023-03-18T20:32:10.780Z,4.17
2023-03-18T20:35:03.614Z,3.37
2023-03-18T20:37:56.474Z,2.92
2023-03-18T20:40:48.428Z,3.52
2023-03-18T20:43:39.661Z,3.12
2023-03-18T20:49:10.587Z,2.83
2023-03-18T20:52:01.496Z,5.65
2023-03-18T20:54:55.073Z,3.47
2023-03-18T20:57:45.835Z,3.22
2023-03-18T21:00:36.809Z,2.30
2023-03-18T21:03:29.421Z,2.80
2023-03-18T21:06:21.949Z,2.85
2023-03-18T21:09:14.054Z,3.10
2023-03-18T21:12:05.216Z,2.98
2023-03-18T21:14:56.389Z,3.50
2023-03-18T21:18:10.281Z,3.33
2023-03-18T21:21:05.336Z,2.98
2023-03-18T21:24:05.297Z,2.92
2023-03-18T21:27:05.264Z,3.45
2023-03-18T21:29:55.665Z,3.42
2023-03-18T21:32:49.226Z,3.87
2023-03-18T21:35:40.976Z,4.45
2023-03-18T21:38:35.087Z,4.28
2023-03-18T21:41:32.018Z,3.62
2023-03-18T21:44:23.441Z,3.98
2023-03-18T21:47:17.695Z,3.20
2023-03-18T21:50:13.216Z,4.42
2023-03-18T21:53:07.807Z,4.33
2023-03-18T21:55:59.482Z,3.87
2023-03-18T21:58:51.551Z,3.52
2023-03-18T22:01:44.436Z,3.90
2023-03-18T22:04:35.891Z,4.47
2023-03-18T22:07:28.530Z,4.25
2023-03-18T22:10:23.319Z,4.60
2023-03-18T22:13:20.879Z,4.90
2023-03-18T22:16:15.692Z,5.03
2023-03-18T22:21:51.048Z,4.40
2023-03-18T22:24:42.656Z,4.50
2023-03-18T22:27:37.045Z,4.50
2023-03-18T22:30:31.138Z,4.60
2023-03-18T22:33:27.478Z,4.55
2023-03-18T22:36:23.870Z,4.33
2023-03-18T22:39:15.922Z,4.55
2023-03-18T22:42:10.066Z,4.45
2023-03-18T22:45:02.938Z,5.22
2023-03-18T22:47:56.201Z,5.15
2023-03-18T22:50:48.324Z,4.83
2023-03-18T22:53:41.721Z,4.40
2023-03-18T22:56:33.372Z,4.45
2023-03-18T22:59:28.316Z,4.30
2023-03-18T23:02:22.976Z,4.40
2023-03-18T23:05:17.837Z,4.20
2023-03-18T23:10:56.704Z,5.05
2023-03-18T23:13:50.970Z,4.50
2023-03-18T23:16:44.782Z,4.17
2023-03-18T23:19:36.406Z,4.17
2023-03-18T23:22:32.460Z,3.58
2023-03-18T23:25:23.566Z,3.67
2023-03-18T23:30:58.553Z,3.80
2023-03-18T23:33:51.752Z,3.10
2023-03-18T23:37:01.723Z,4.12
2023-03-18T23:40:13.413Z,3.70
2023-03-18T23:59:04.214Z,3.40
